createdAt,value
2023-03-23T00:00:50.644Z,95527.00
2023-03-23T00:01:51.603Z,95527.00
2023-03-23T00:02:50.644Z,95531.00
2023-03-23T00:03:51.661Z,95529.00
2023-03-23T00:04:50.579Z,95529.00
2023-03-23T00:05:51.690Z,95529.00
2023-03-23T00:06:51.676Z,95531.00
2023-03-23T00:07:50.620Z,95529.00
2023-03-23T00:08:50.795Z,95529.00
2023-03-23T00:09:52.045Z,95529.00
2023-03-23T00:10:52.169Z,95531.00
2023-03-23T00:13:09.840Z,95533.00
2023-03-23T00:14:10.754Z,95533.00
2023-03-23T00:15:10.634Z,95533.00
2023-03-23T00:16:09.658Z,95531.00
2023-03-23T00:17:10.773Z,95535.00
2023-03-23T00:18:10.820Z,95533.00
2023-03-23T00:19:10.331Z,95537.00
2023-03-23T00:20:10.633Z,95535.00
2023-03-23T00:21:10.587Z,95535.00
2023-03-23T00:22:09.573Z,95533.00
2023-03-23T00:23:09.581Z,95533.00
2023-03-23T00:24:24.268Z,95535.00
2023-03-23T00:25:10.617Z,95537.00
2023-03-23T00:26:10.733Z,95537.00
2023-03-23T00:27:09.571Z,95535.00
2023-03-23T00:28:09.534Z,95541.00
2023-03-23T00:29:10.626Z,95541.00
2023-03-23T00:30:10.742Z,95541.00
2023-03-23T00:31:11.198Z,95541.00
2023-03-23T00:32:10.828Z,95539.00
2023-03-23T00:33:10.809Z,95541.00
2023-03-23T00:34:10.521Z,95541.00
2023-03-23T00:35:10.496Z,95537.00
2023-03-23T00:36:10.480Z,95539.00
2023-03-23T00:37:09.493Z,95535.00
2023-03-23T00:38:10.460Z,95533.00
2023-03-23T00:39:10.825Z,95535.00
2023-03-23T00:41:28.717Z,95539.00
2023-03-23T00:43:48.417Z,95541.00
2023-03-23T00:44:48.898Z,95541.00
2023-03-23T00:45:49.227Z,95537.00
2023-03-23T00:46:48.710Z,95539.00
2023-03-23T00:47:48.708Z,95537.00
2023-03-23T00:48:48.696Z,95535.00
2023-03-23T00:49:48.639Z,95535.00
2023-03-23T00:50:48.620Z,95535.00
2023-03-23T00:51:47.777Z,95535.00
2023-03-23T00:54:06.784Z,95537.00
2023-03-23T00:55:06.915Z,95539.00
2023-03-23T00:56:07.803Z,95533.00
2023-03-23T00:57:07.807Z,95533.00
2023-03-23T00:58:07.682Z,95531.00
2023-03-23T00:59:06.657Z,95531.00
2023-03-23T01:00:07.774Z,95533.00
2023-03-23T01:01:07.647Z,95533.00
2023-03-23T01:02:07.629Z,95529.00
2023-03-23T01:04:25.845Z,95531.00
2023-03-23T01:05:26.810Z,95529.00
2023-03-23T01:06:25.697Z,95531.00
2023-03-23T01:07:26.679Z,95529.00
2023-03-23T01:08:26.747Z,95525.00
2023-03-23T01:09:25.979Z,95529.00
2023-03-23T01:10:26.654Z,95527.00
2023-03-23T01:11:26.654Z,95529.00
2023-03-23T01:12:27.020Z,95529.00
2023-03-23T01:13:26.645Z,95529.00
2023-03-23T01:14:26.888Z,95531.00
2023-03-23T01:15:26.645Z,95531.00
2023-03-23T01:16:26.621Z,95531.00
2023-03-23T01:17:27.670Z,95531.00
2023-03-23T01:19:44.720Z,95533.00
2023-03-23T01:20:45.721Z,95531.00
2023-03-23T01:21:45.689Z,95531.00
2023-03-23T01:22:45.755Z,95529.00
2023-03-23T01:23:45.734Z,95529.00
2023-03-23T01:24:46.096Z,95525.00
2023-03-23T01:25:45.857Z,95525.00
2023-03-23T01:26:45.643Z,95524.00
2023-03-23T01:27:44.637Z,95524.00
2023-03-23T01:28:45.622Z,95520.00
2023-03-23T01:29:44.698Z,95520.00
2023-03-23T01:30:45.752Z,95516.00
2023-03-23T01:31:45.086Z,95514.00
2023-03-23T01:32:45.615Z,95512.00
2023-03-23T01:33:45.573Z,95514.00
2023-03-23T01:34:46.331Z,95510.00
2023-03-23T01:35:45.595Z,95508.00
2023-03-23T01:36:45.925Z,95508.00
2023-03-23T01:37:46.099Z,95506.00
2023-03-23T01:38:46.063Z,95508.00
2023-03-23T01:39:45.951Z,95506.00
2023-03-23T01:40:45.540Z,95510.00
2023-03-23T01:41:45.564Z,95508.00
2023-03-23T01:42:45.817Z,95508.00
2023-03-23T01:43:45.516Z,95512.00
2023-03-23T01:44:45.501Z,95510.00
2023-03-23T01:45:45.509Z,95510.00
2023-03-23T01:46:45.512Z,95510.00
2023-03-23T01:47:44.544Z,95514.00
2023-03-23T01:48:45.571Z,95516.00
2023-03-23T01:49:45.618Z,95516.00
2023-03-23T01:50:45.629Z,95518.00
2023-03-23T01:51:44.861Z,95518.00
2023-03-23T01:52:45.729Z,95514.00
2023-03-23T01:53:46.154Z,95518.00
2023-03-23T01:56:04.221Z,95514.00
2023-03-23T01:57:05.064Z,95510.00
2023-03-23T01:58:04.923Z,95510.00
2023-03-23T01:59:05.064Z,95508.00
2023-03-23T02:00:04.868Z,95508.00
2023-03-23T02:01:04.941Z,95502.00
2023-03-23T02:02:05.132Z,95504.00
2023-03-23T02:03:04.860Z,95498.00
2023-03-23T02:04:04.399Z,95496.00
2023-03-23T02:05:05.162Z,95496.00
2023-03-23T02:06:04.818Z,95496.00
2023-03-23T02:07:04.798Z,95494.00
2023-03-23T02:08:04.818Z,95496.00
2023-03-23T02:09:10.589Z,95496.00
2023-03-23T02:10:05.134Z,95496.00
2023-03-23T02:11:03.799Z,95496.00
2023-03-23T02:12:04.780Z,95496.00
2023-03-23T02:13:05.239Z,95500.00
2023-03-23T02:14:06.813Z,95502.00
2023-03-23T02:15:05.560Z,95506.00
2023-03-23T02:16:05.142Z,95508.00
2023-03-23T02:17:04.748Z,95508.00
2023-03-23T02:18:05.351Z,95508.00
2023-03-23T02:19:04.769Z,95510.00
2023-03-23T02:20:04.732Z,95510.00
2023-03-23T02:21:04.700Z,95508.00
2023-03-23T02:22:04.684Z,95506.00
2023-03-23T02:23:04.704Z,95502.00
2023-03-23T02:24:05.044Z,95504.00
2023-03-23T02:25:05.006Z,95502.00
2023-03-23T02:26:04.994Z,95500.00
2023-03-23T02:27:05.138Z,95502.00
2023-03-23T02:28:04.911Z,95500.00
2023-03-23T02:30:49.833Z,95502.00
2023-03-23T02:31:50.900Z,95500.00
2023-03-23T02:34:09.108Z,95500.00
2023-03-23T02:35:10.043Z,95502.00
2023-03-23T02:36:09.963Z,95500.00
2023-03-23T02:37:10.057Z,95504.00
2023-03-23T02:39:28.116Z,95496.00
2023-03-23T02:40:29.379Z,95498.00
2023-03-23T02:41:28.106Z,95496.00
2023-03-23T02:42:29.204Z,95498.00
2023-03-23T02:43:28.961Z,95498.00
2023-03-23T02:44:28.967Z,95498.00
2023-03-23T02:45:28.983Z,95498.00
2023-03-23T02:46:28.929Z,95496.00
2023-03-23T02:47:29.059Z,95498.00
2023-03-23T02:48:28.939Z,95496.00
2023-03-23T02:49:29.185Z,95498.00
2023-03-23T02:50:28.918Z,95492.00
2023-03-23T02:51:28.912Z,95498.00
2023-03-23T02:52:28.908Z,95500.00
2023-03-23T02:53:27.881Z,95498.00
2023-03-23T02:55:47.121Z,95502.00
2023-03-23T02:56:48.028Z,95504.00
2023-03-23T02:57:47.987Z,95504.00
2023-03-23T02:58:48.005Z,95508.00
2023-03-23T02:59:47.988Z,95510.00
2023-03-23T03:00:47.310Z,95514.00
2023-03-23T03:01:47.960Z,95514.00
2023-03-23T03:02:48.133Z,95514.00
2023-03-23T03:03:47.955Z,95516.00
2023-03-23T03:04:48.598Z,95514.00
2023-03-23T03:05:47.302Z,95514.00
2023-03-23T03:06:48.000Z,95512.00
2023-03-23T03:07:47.069Z,95512.00
2023-03-23T03:08:48.547Z,95512.00
2023-03-23T03:09:48.154Z,95514.00
2023-03-23T03:10:47.198Z,95510.00
2023-03-23T03:11:48.533Z,95510.00
2023-03-23T03:12:48.441Z,95510.00
2023-03-23T03:13:48.772Z,95510.00
2023-03-23T03:14:48.992Z,95512.00
2023-03-23T03:15:48.677Z,95508.00
2023-03-23T03:16:48.768Z,95510.00
2023-03-23T03:17:48.771Z,95510.00
2023-03-23T03:18:47.974Z,95510.00
2023-03-23T03:19:48.586Z,95512.00
2023-03-23T03:22:06.766Z,95514.00
2023-03-23T03:23:07.747Z,95512.00
2023-03-23T03:24:07.797Z,95512.00
2023-03-23T03:25:18.072Z,95514.00
2023-03-23T03:26:08.151Z,95514.00
2023-03-23T03:27:06.632Z,95514.00
2023-03-23T03:28:06.599Z,95516.00
2023-03-23T03:29:07.612Z,95516.00
2023-03-23T03:30:06.590Z,95518.00
2023-03-23T03:31:06.591Z,95516.00
2023-03-23T03:32:07.607Z,95516.00
2023-03-23T03:33:06.574Z,95514.00
2023-03-23T03:34:07.746Z,95512.00
2023-03-23T03:35:07.935Z,95512.00
2023-03-23T03:36:07.624Z,95508.00
2023-03-23T03:37:07.546Z,95506.00
2023-03-23T03:38:07.535Z,95504.00
2023-03-23T03:39:06.551Z,95502.00
2023-03-23T03:40:07.713Z,95502.00
2023-03-23T03:41:07.770Z,95500.00
2023-03-23T03:42:07.541Z,95500.00
2023-03-23T03:43:08.038Z,95498.00
2023-03-23T03:44:06.755Z,95498.00
2023-03-23T03:45:08.152Z,95500.00
2023-03-23T03:46:07.290Z,95500.00
2023-03-23T03:47:08.018Z,95498.00
2023-03-23T03:48:07.941Z,95498.00
2023-03-23T03:49:08.456Z,95500.00
2023-03-23T03:50:08.215Z,95504.00
2023-03-23T03:51:08.067Z,95504.00
2023-03-23T03:52:09.013Z,95508.00
2023-03-23T03:53:08.747Z,95510.00
2023-03-23T03:54:08.208Z,95514.00
2023-03-23T03:55:09.090Z,95516.00
2023-03-23T03:56:08.626Z,95516.00
2023-03-23T03:57:07.357Z,95518.00
2023-03-23T03:58:07.406Z,95518.00
2023-03-23T03:59:21.585Z,95520.00
2023-03-23T04:00:08.451Z,95518.00
2023-03-23T04:01:08.438Z,95520.00
2023-03-23T04:02:08.424Z,95522.00
2023-03-23T04:03:08.840Z,95520.00
2023-03-23T04:04:08.434Z,95522.00
2023-03-23T04:05:08.638Z,95522.00
2023-03-23T04:06:09.040Z,95522.00
2023-03-23T04:07:07.541Z,95524.00
2023-03-23T04:09:26.516Z,95520.00
2023-03-23T04:10:32.798Z,95520.00
2023-03-23T04:11:33.189Z,95520.00
2023-03-23T04:12:27.563Z,95520.00
2023-03-23T04:13:27.528Z,95524.00
2023-03-23T04:14:27.828Z,95525.00
2023-03-23T04:15:27.820Z,95527.00
2023-03-23T04:17:45.824Z,95535.00
2023-03-23T04:18:46.760Z,95535.00
2023-03-23T04:19:46.569Z,95537.00
2023-03-23T04:20:46.947Z,95541.00
2023-03-23T04:21:46.554Z,95541.00
2023-03-23T04:22:46.545Z,95539.00
2023-03-23T04:25:04.920Z,95539.00
2023-03-23T04:26:05.891Z,95543.00
2023-03-23T04:27:05.643Z,95541.00
2023-03-23T04:28:05.742Z,95545.00
2023-03-23T04:29:05.679Z,95543.00
2023-03-23T04:30:05.669Z,95543.00
2023-03-23T04:31:06.281Z,95543.00
2023-03-23T04:32:06.093Z,95543.00
2023-03-23T04:33:05.594Z,95545.00
2023-03-23T04:34:05.600Z,95547.00
2023-03-23T04:35:12.886Z,95547.00
2023-03-23T04:36:05.944Z,95545.00
2023-03-23T04:37:05.793Z,95547.00
2023-03-23T04:38:04.861Z,95543.00
2023-03-23T04:39:05.602Z,95547.00
2023-03-23T04:40:06.090Z,95545.00
2023-03-23T04:41:05.981Z,95547.00
2023-03-23T04:42:05.616Z,95543.00
2023-03-23T04:43:05.577Z,95545.00
2023-03-23T04:44:05.572Z,95545.00
2023-03-23T04:45:04.551Z,95545.00
2023-03-23T04:46:04.661Z,95545.00
2023-03-23T04:47:05.555Z,95549.00
2023-03-23T04:48:05.767Z,95549.00
2023-03-23T04:49:06.172Z,95553.00
2023-03-23T04:50:04.678Z,95551.00
2023-03-23T04:51:06.164Z,95553.00
2023-03-23T04:52:06.043Z,95555.00
2023-03-23T04:53:06.057Z,95559.00
2023-03-23T04:54:06.267Z,95559.00
2023-03-23T04:55:06.097Z,95559.00
2023-03-23T04:56:05.080Z,95559.00
2023-03-23T04:57:06.114Z,95563.00
2023-03-23T04:58:05.944Z,95559.00
2023-03-23T04:59:05.969Z,95559.00
2023-03-23T05:00:05.972Z,95559.00
2023-03-23T05:01:06.005Z,95563.00
2023-03-23T05:02:14.569Z,95563.00
2023-03-23T05:03:06.463Z,95561.00
2023-03-23T05:04:05.978Z,95561.00
2023-03-23T05:05:06.218Z,95565.00
2023-03-23T05:06:05.993Z,95565.00
2023-03-23T05:07:06.402Z,95567.00
2023-03-23T05:08:06.483Z,95569.00
2023-03-23T05:10:24.681Z,95563.00
2023-03-23T05:11:24.142Z,95567.00
2023-03-23T05:12:24.400Z,95565.00
2023-03-23T05:13:25.462Z,95565.00
2023-03-23T05:14:23.985Z,95565.00
2023-03-23T05:15:24.266Z,95561.00
2023-03-23T05:16:25.591Z,95559.00
2023-03-23T05:17:24.159Z,95561.00
2023-03-23T05:18:25.283Z,95561.00
2023-03-23T05:19:24.951Z,95557.00
2023-03-23T05:20:24.945Z,95559.00
2023-03-23T05:21:25.134Z,95563.00
2023-03-23T05:22:24.187Z,95565.00
2023-03-23T05:23:24.922Z,95567.00
2023-03-23T05:24:25.162Z,95572.00
2023-03-23T05:25:25.162Z,95574.00
2023-03-23T05:26:24.896Z,95576.00
2023-03-23T05:27:24.895Z,95578.00
2023-03-23T05:28:25.163Z,95586.00
2023-03-23T05:29:24.928Z,95582.00
2023-03-23T05:30:24.951Z,95582.00
2023-03-23T05:31:25.290Z,95582.00
2023-03-23T05:32:25.007Z,95580.00
2023-03-23T05:33:25.259Z,95584.00
2023-03-23T05:34:25.024Z,95582.00
2023-03-23T05:35:25.044Z,95578.00
2023-03-23T05:36:24.313Z,95578.00
2023-03-23T05:37:24.078Z,95582.00
2023-03-23T05:38:25.321Z,95580.00
2023-03-23T05:39:25.148Z,95580.00
2023-03-23T05:40:25.146Z,95580.00
2023-03-23T05:41:25.358Z,95580.00
2023-03-23T05:42:25.164Z,95578.00
2023-03-23T05:43:25.184Z,95582.00
2023-03-23T05:44:25.190Z,95578.00
2023-03-23T05:45:25.296Z,95582.00
2023-03-23T05:46:25.552Z,95588.00
2023-03-23T05:47:25.339Z,95592.00
2023-03-23T05:48:25.277Z,95596.00
2023-03-23T05:49:25.746Z,95594.00
2023-03-23T05:50:25.289Z,95594.00
2023-03-23T05:51:25.505Z,95592.00
2023-03-23T05:52:25.317Z,95592.00
2023-03-23T05:53:25.348Z,95592.00
2023-03-23T05:54:25.510Z,95594.00
2023-03-23T05:55:25.352Z,95588.00
2023-03-23T05:56:25.549Z,95588.00
2023-03-23T05:57:25.797Z,95588.00
2023-03-23T05:58:27.161Z,95588.00
2023-03-23T05:59:25.382Z,95590.00
2023-03-23T06:00:25.534Z,95594.00
2023-03-23T06:01:25.397Z,95596.00
2023-03-23T06:02:25.525Z,95600.00
2023-03-23T06:03:25.356Z,95606.00
2023-03-23T06:07:24.419Z,95596.00
2023-03-23T06:08:25.615Z,95594.00
2023-03-23T06:10:24.321Z,95590.00
2023-03-23T06:11:24.529Z,95596.00
2023-03-23T06:12:25.309Z,95600.00
2023-03-23T06:17:24.591Z,95602.00
2023-03-23T06:18:25.358Z,95602.00
2023-03-23T06:19:25.762Z,95600.00
2023-03-23T06:22:24.209Z,95598.00
2023-03-23T06:23:25.221Z,95598.00
2023-03-23T06:25:24.209Z,95594.00
2023-03-23T06:26:25.204Z,95592.00
2023-03-23T06:27:25.176Z,95592.00
2023-03-23T06:28:25.167Z,95598.00
2023-03-23T06:32:24.154Z,95611.00
2023-03-23T06:33:25.122Z,95604.00
2023-03-23T06:34:24.114Z,95610.00
2023-03-23T06:35:25.125Z,95604.00
2023-03-23T06:36:25.181Z,95604.00
2023-03-23T06:39:24.116Z,95600.00
2023-03-23T06:40:25.081Z,95596.00
2023-03-23T06:42:24.076Z,95596.00
2023-03-23T06:44:24.066Z,95596.00
2023-03-23T06:45:25.057Z,95596.00
2023-03-23T06:46:25.093Z,95600.00
2023-03-23T06:47:25.031Z,95598.00
2023-03-23T06:48:25.024Z,95596.00
2023-03-23T06:49:24.014Z,95592.00
2023-03-23T06:50:25.012Z,95590.00
2023-03-23T06:51:25.008Z,95588.00
2023-03-23T06:52:25.010Z,95584.00
2023-03-23T06:55:24.013Z,95582.00
2023-03-23T06:56:25.066Z,95582.00
2023-03-23T06:57:25.101Z,95582.00
2023-03-23T06:58:25.160Z,95586.00
2023-03-23T06:59:24.170Z,95584.00
2023-03-23T07:00:25.233Z,95592.00
2023-03-23T07:01:25.256Z,95590.00
2023-03-23T07:02:25.790Z,95588.00
2023-03-23T07:05:24.402Z,95582.00
2023-03-23T07:06:25.420Z,95580.00
2023-03-23T07:07:25.434Z,95578.00
2023-03-23T07:08:24.429Z,95578.00
2023-03-23T07:09:37.645Z,95576.00
2023-03-23T07:10:25.448Z,95576.00
2023-03-23T07:13:24.426Z,95574.00
2023-03-23T07:14:24.418Z,95571.00
2023-03-23T07:15:25.408Z,95569.00
2023-03-23T07:16:25.393Z,95565.00
2023-03-23T07:17:25.396Z,95565.00
2023-03-23T07:18:25.378Z,95565.00
2023-03-23T07:20:24.357Z,95567.00
2023-03-23T07:21:25.367Z,95563.00
2023-03-23T07:22:26.735Z,95565.00
2023-03-23T07:23:24.344Z,95561.00
2023-03-23T07:24:25.338Z,95559.00
2023-03-23T07:25:25.335Z,95559.00
2023-03-23T07:28:24.318Z,95545.00
2023-03-23T07:29:25.294Z,95545.00
2023-03-23T07:30:25.289Z,95539.00
2023-03-23T07:34:24.288Z,95555.00
2023-03-23T07:36:24.245Z,95567.00
2023-03-23T07:37:24.249Z,95572.00
2023-03-23T07:38:25.268Z,95572.00
2023-03-23T07:39:25.305Z,95569.00
2023-03-23T07:41:24.364Z,95569.00
2023-03-23T07:42:25.371Z,95569.00
2023-03-23T07:44:24.428Z,95569.00
2023-03-23T07:45:25.405Z,95572.00
2023-03-23T07:48:24.414Z,95569.00
2023-03-23T07:49:25.387Z,95572.00
2023-03-23T07:50:25.429Z,95569.00
2023-03-23T07:51:25.426Z,95571.00
2023-03-23T07:52:25.809Z,95567.00
2023-03-23T07:54:24.417Z,95565.00
2023-03-23T07:55:25.427Z,95567.00
2023-03-23T07:59:24.579Z,95565.00
2023-03-23T08:00:25.623Z,95563.00
2023-03-23T08:01:25.685Z,95565.00
2023-03-23T08:02:25.719Z,95567.00
2023-03-23T08:03:25.799Z,95571.00
2023-03-23T08:04:25.804Z,95569.00
2023-03-23T08:06:24.862Z,95569.00
2023-03-23T08:07:25.892Z,95569.00
2023-03-23T08:08:25.899Z,95563.00
2023-03-23T08:09:25.915Z,95563.00
2023-03-23T08:10:24.943Z,95565.00
2023-03-23T08:11:25.897Z,95565.00
2023-03-23T08:12:25.894Z,95567.00
2023-03-23T08:13:25.934Z,95572.00
2023-03-23T08:16:24.901Z,95582.00
2023-03-23T08:17:24.967Z,95580.00
2023-03-23T08:18:25.002Z,95582.00
2023-03-23T08:19:26.005Z,95580.00
2023-03-23T08:20:26.031Z,95580.00
2023-03-23T08:21:26.054Z,95580.00
2023-03-23T08:22:26.101Z,95580.00
2023-03-23T08:23:26.158Z,95576.00
2023-03-23T08:24:26.157Z,95576.00
2023-03-23T08:25:26.212Z,95572.00
2023-03-23T08:26:26.232Z,95571.00
2023-03-23T08:27:26.234Z,95572.00
2023-03-23T08:28:26.245Z,95571.00
2023-03-23T08:29:26.260Z,95571.00
2023-03-23T08:31:25.262Z,95571.00
2023-03-23T08:32:26.271Z,95571.00
2023-03-23T08:33:26.290Z,95569.00
2023-03-23T08:34:26.309Z,95569.00
2023-03-23T08:38:25.470Z,95572.00
2023-03-23T08:39:26.524Z,95576.00
2023-03-23T08:40:26.578Z,95576.00
2023-03-23T08:41:26.602Z,95578.00
2023-03-23T08:42:26.648Z,95578.00
2023-03-23T08:43:26.691Z,95578.00
2023-03-23T08:44:26.710Z,95584.00
2023-03-23T08:45:26.756Z,95584.00
2023-03-23T08:49:25.934Z,95582.00
2023-03-23T08:50:27.012Z,95584.00
2023-03-23T08:51:27.084Z,95582.00
2023-03-23T08:52:27.130Z,95582.00
2023-03-23T08:53:26.306Z,95578.00
2023-03-23T08:54:27.225Z,95584.00
2023-03-23T08:55:27.272Z,95586.00
2023-03-23T08:56:27.360Z,95586.00
2023-03-23T08:57:27.400Z,95586.00
2023-03-23T08:58:27.444Z,95586.00
2023-03-23T08:59:27.508Z,95586.00
2023-03-23T09:00:33.311Z,95586.00
2023-03-23T09:01:28.482Z,95586.00
2023-03-23T09:05:26.474Z,95584.00
2023-03-23T09:06:28.865Z,95582.00
2023-03-23T09:10:26.510Z,95580.00
2023-03-23T09:11:27.534Z,95580.00
2023-03-23T09:12:26.535Z,95580.00
2023-03-23T09:17:26.602Z,95578.00
2023-03-23T09:18:27.548Z,95578.00
2023-03-23T09:19:27.535Z,95574.00
2023-03-23T09:20:27.556Z,95569.00
2023-03-23T09:21:27.562Z,95571.00
2023-03-23T09:23:26.546Z,95569.00
2023-03-23T09:24:27.577Z,95571.00
2023-03-23T09:26:26.606Z,95572.00
2023-03-23T09:27:27.587Z,95571.00
2023-03-23T09:30:26.580Z,95565.00
2023-03-23T09:31:27.575Z,95565.00
2023-03-23T09:32:27.563Z,95565.00
2023-03-23T09:33:27.596Z,95563.00
2023-03-23T09:36:26.565Z,95567.00
2023-03-23T09:37:27.565Z,95565.00
2023-03-23T09:38:27.572Z,95567.00
2023-03-23T09:39:27.579Z,95572.00
2023-03-23T09:41:26.567Z,95571.00
2023-03-23T09:42:27.550Z,95571.00
2023-03-23T09:43:27.826Z,95572.00
2023-03-23T09:45:26.596Z,95569.00
2023-03-23T09:46:27.612Z,95571.00
2023-03-23T09:48:26.699Z,95563.00
2023-03-23T09:49:26.743Z,95563.00
2023-03-23T09:50:27.744Z,95563.00
2023-03-23T09:51:27.766Z,95555.00
2023-03-23T09:52:27.802Z,95555.00
2023-03-23T09:53:27.850Z,95553.00
2023-03-23T09:56:26.966Z,95555.00
2023-03-23T09:57:28.025Z,95551.00
2023-03-23T09:58:28.332Z,95555.00
2023-03-23T10:03:27.450Z,95555.00
2023-03-23T10:04:28.490Z,95559.00
2023-03-23T10:05:28.537Z,95557.00
2023-03-23T10:06:28.583Z,95557.00
2023-03-23T10:09:27.769Z,95551.00
2023-03-23T10:10:28.804Z,95549.00
2023-03-23T10:11:28.860Z,95549.00
2023-03-23T10:12:28.911Z,95549.00
2023-03-23T10:13:28.993Z,95549.00
2023-03-23T10:14:28.276Z,95547.00
2023-03-23T10:15:28.052Z,95547.00
2023-03-23T10:16:29.106Z,95545.00
2023-03-23T10:17:29.240Z,95543.00
2023-03-23T10:18:29.210Z,95539.00
2023-03-23T10:23:28.401Z,95524.00
2023-03-23T10:24:29.446Z,95524.00
2023-03-23T10:25:29.475Z,95522.00
2023-03-23T10:26:29.547Z,95522.00
2023-03-23T10:27:29.569Z,95524.00
2023-03-23T10:28:29.598Z,95525.00
2023-03-23T10:29:29.660Z,95524.00
2023-03-23T10:30:29.686Z,95527.00
2023-03-23T10:31:29.726Z,95527.00
2023-03-23T10:32:28.764Z,95524.00
2023-03-23T10:33:29.800Z,95524.00
2023-03-23T10:34:29.840Z,95522.00
2023-03-23T10:35:31.297Z,95524.00
2023-03-23T10:40:28.850Z,95512.00
2023-03-23T10:41:29.861Z,95508.00
2023-03-23T10:46:32.143Z,95498.00
2023-03-23T10:47:29.792Z,95498.00
2023-03-23T10:48:29.792Z,95498.00
2023-03-23T10:49:28.794Z,95500.00
2023-03-23T10:50:29.771Z,95500.00
2023-03-23T10:51:29.778Z,95502.00
2023-03-23T10:55:28.786Z,95496.00
2023-03-23T10:56:29.753Z,95498.00
2023-03-23T10:57:29.754Z,95492.00
2023-03-23T11:00:28.710Z,95486.00
2023-03-23T11:01:29.690Z,95488.00
2023-03-23T11:02:29.904Z,95484.00
2023-03-23T11:05:28.694Z,95478.00
2023-03-23T11:06:29.675Z,95478.00
2023-03-23T11:07:29.689Z,95475.00
2023-03-23T11:12:28.631Z,95477.00
2023-03-23T11:14:28.615Z,95478.00
2023-03-23T11:15:29.632Z,95473.00
2023-03-23T11:16:29.597Z,95473.00
2023-03-23T11:19:28.569Z,95471.00
2023-03-23T11:20:29.580Z,95471.00
2023-03-23T11:23:28.541Z,95478.00
2023-03-23T11:24:29.544Z,95477.00
2023-03-23T11:25:29.566Z,95477.00
2023-03-23T11:27:28.501Z,95477.00
2023-03-23T11:28:29.528Z,95475.00
2023-03-23T11:29:29.489Z,95477.00
2023-03-23T11:34:28.472Z,95478.00
2023-03-23T11:35:29.459Z,95477.00
2023-03-23T11:37:28.442Z,95475.00
2023-03-23T11:38:29.430Z,95475.00
2023-03-23T11:39:29.436Z,95473.00
2023-03-23T11:42:28.396Z,95471.00
2023-03-23T11:43:30.882Z,95467.00
2023-03-23T11:44:29.436Z,95469.00
2023-03-23T11:45:29.476Z,95469.00
2023-03-23T11:46:29.476Z,95467.00
2023-03-23T11:47:29.480Z,95463.00
2023-03-23T11:48:29.485Z,95465.00
2023-03-23T11:49:30.684Z,95465.00
2023-03-23T11:51:28.488Z,95463.00
2023-03-23T11:52:29.484Z,95463.00
2023-03-23T11:56:28.447Z,95461.00
2023-03-23T11:57:29.482Z,95465.00
2023-03-23T11:58:29.439Z,95465.00
2023-03-23T11:59:29.440Z,95465.00
2023-03-23T12:00:29.435Z,95461.00
2023-03-23T12:01:29.438Z,95465.00
2023-03-23T12:03:28.396Z,95461.00
2023-03-23T12:04:29.407Z,95465.00
2023-03-23T12:05:29.382Z,95463.00
2023-03-23T12:08:28.377Z,95459.00
2023-03-23T12:09:29.348Z,95457.00
2023-03-23T12:10:40.554Z,95457.00
2023-03-23T12:15:28.316Z,95449.00
2023-03-23T12:16:29.316Z,95447.00
2023-03-23T12:17:29.293Z,95445.00
2023-03-23T12:19:28.274Z,95443.00
2023-03-23T12:20:34.299Z,95439.00
2023-03-23T12:21:29.274Z,95430.00
2023-03-23T12:25:28.231Z,95414.00
2023-03-23T12:26:29.236Z,95412.00
2023-03-23T12:27:28.215Z,95410.00
2023-03-23T12:28:29.228Z,95408.00
2023-03-23T12:29:29.249Z,95406.00
2023-03-23T12:31:28.220Z,95402.00
2023-03-23T12:32:29.179Z,95398.00
2023-03-23T12:33:28.192Z,95398.00
2023-03-23T12:34:29.181Z,95394.00
2023-03-23T12:37:28.166Z,95386.00
2023-03-23T12:38:29.165Z,95388.00
2023-03-23T12:39:29.441Z,95385.00
2023-03-23T12:42:28.315Z,95379.00
2023-03-23T12:43:29.339Z,95375.00
2023-03-23T12:44:29.366Z,95377.00
2023-03-23T12:46:28.420Z,95377.00
2023-03-23T12:47:29.502Z,95375.00
2023-03-23T12:49:28.528Z,95373.00
2023-03-23T12:50:29.555Z,95375.00
2023-03-23T12:51:28.594Z,95377.00
2023-03-23T12:52:29.673Z,95377.00
2023-03-23T12:53:29.683Z,95377.00
2023-03-23T12:54:29.674Z,95379.00
2023-03-23T12:55:29.729Z,95375.00
2023-03-23T12:56:29.759Z,95371.00
2023-03-23T13:01:28.958Z,95355.00
2023-03-23T13:03:29.028Z,95353.00
2023-03-23T13:04:30.047Z,95351.00
2023-03-23T13:05:30.090Z,95347.00
2023-03-23T13:06:32.712Z,95349.00
2023-03-23T13:07:30.089Z,95345.00
2023-03-23T13:09:29.074Z,95341.00
2023-03-23T13:10:29.115Z,95341.00
2023-03-23T13:11:30.079Z,95343.00
2023-03-23T13:13:29.994Z,95341.00
2023-03-23T13:14:30.035Z,95339.00
2023-03-23T13:15:30.044Z,95341.00
2023-03-23T13:17:29.074Z,95341.00
2023-03-23T13:18:30.018Z,95343.00
2023-03-23T13:19:30.010Z,95341.00
2023-03-23T13:20:30.012Z,95345.00
2023-03-23T13:21:29.007Z,95345.00
2023-03-23T13:22:29.975Z,95347.00
2023-03-23T13:26:28.953Z,95345.00
2023-03-23T13:27:29.951Z,95347.00
2023-03-23T13:28:29.938Z,95347.00
2023-03-23T13:30:28.964Z,95345.00
2023-03-23T13:31:29.921Z,95345.00
2023-03-23T13:33:28.944Z,95343.00
2023-03-23T13:34:29.934Z,95338.00
2023-03-23T13:35:29.914Z,95339.00
2023-03-23T13:39:28.873Z,95330.00
2023-03-23T13:40:29.862Z,95328.00
2023-03-23T13:41:29.874Z,95326.00
2023-03-23T13:42:29.904Z,95326.00
2023-03-23T13:43:29.986Z,95326.00
2023-03-23T13:44:29.981Z,95322.00
2023-03-23T13:45:30.034Z,95320.00
2023-03-23T13:46:30.046Z,95320.00
2023-03-23T13:47:30.105Z,95314.00
2023-03-23T13:48:30.242Z,95314.00
2023-03-23T13:51:29.263Z,95316.00
2023-03-23T13:52:29.314Z,95314.00
2023-03-23T13:53:30.725Z,95314.00
2023-03-23T13:54:29.387Z,95310.00
2023-03-23T13:55:30.420Z,95310.00
2023-03-23T13:59:29.556Z,95304.00
2023-03-23T14:00:30.608Z,95306.00
2023-03-23T14:02:29.693Z,95302.00
2023-03-23T14:03:30.715Z,95302.00
2023-03-23T14:04:30.740Z,95296.00
2023-03-23T14:05:30.813Z,95296.00
2023-03-23T14:06:30.851Z,95296.00
2023-03-23T14:07:29.845Z,95292.00
2023-03-23T14:08:30.887Z,95292.00
2023-03-23T14:09:30.913Z,95292.00
2023-03-23T14:10:30.971Z,95292.00
2023-03-23T14:11:30.992Z,95294.00
2023-03-23T14:12:31.021Z,95291.00
2023-03-23T14:13:31.074Z,95291.00
2023-03-23T14:14:31.090Z,95291.00
2023-03-23T14:16:30.163Z,95296.00
2023-03-23T14:17:31.241Z,95300.00
2023-03-23T14:18:31.224Z,95298.00
2023-03-23T14:19:30.276Z,95298.00
2023-03-23T14:20:31.297Z,95304.00
2023-03-23T14:21:31.379Z,95302.00
2023-03-23T14:22:31.397Z,95302.00
2023-03-23T14:23:31.404Z,95304.00
2023-03-23T14:24:31.461Z,95300.00
2023-03-23T14:25:30.499Z,95302.00
2023-03-23T14:26:31.524Z,95300.00
2023-03-23T14:27:31.569Z,95300.00
2023-03-23T14:28:31.610Z,95298.00
2023-03-23T14:33:30.840Z,95300.00
2023-03-23T14:34:31.847Z,95298.00
2023-03-23T14:35:31.924Z,95296.00
2023-03-23T14:36:31.971Z,95298.00
2023-03-23T14:45:31.374Z,95294.00
2023-03-23T14:46:32.417Z,95296.00
2023-03-23T14:47:32.462Z,95294.00
2023-03-23T14:48:32.499Z,95294.00
2023-03-23T14:49:32.599Z,95292.00
2023-03-23T14:50:32.609Z,95292.00
2023-03-23T14:51:31.657Z,95294.00
2023-03-23T14:52:32.693Z,95294.00
2023-03-23T14:53:32.749Z,95292.00
2023-03-23T14:54:32.771Z,95292.00
2023-03-23T14:55:32.840Z,95292.00